createdAt,value
2023-10-20T00:01:55.569Z,98862.72
2023-10-20T00:04:22.253Z,98851.59
2023-10-20T00:06:48.853Z,98858.88
2023-10-20T00:09:19.315Z,98856.53
2023-10-20T00:11:46.420Z,98847.75
2023-10-20T00:14:12.981Z,98842.41
2023-10-20T00:16:39.559Z,98836.22
2023-10-20T00:19:06.224Z,98836.59
2023-10-20T00:21:32.830Z,98847.97
2023-10-20T00:23:59.454Z,98854.13
2023-10-20T00:26:26.222Z,98837.59
2023-10-20T00:28:52.845Z,98846.72
2023-10-20T00:31:19.537Z,98840.22
2023-10-20T00:33:51.372Z,98848.22
2023-10-20T00:36:18.784Z,98844.72
2023-10-20T00:38:45.560Z,98842.44
2023-10-20T00:41:12.384Z,98852.72
2023-10-20T00:43:39.694Z,98848.47
2023-10-20T00:46:08.223Z,98843.06
2023-10-20T00:48:38.362Z,98846.13
2023-10-20T00:51:06.988Z,98841.47
2023-10-20T00:53:38.021Z,98829.94
2023-10-20T00:56:06.262Z,98820.75
2023-10-20T00:58:33.482Z,98828.34
2023-10-20T01:01:00.711Z,98818.00
2023-10-20T01:03:28.907Z,98810.75
2023-10-20T01:05:56.845Z,98813.03
2023-10-20T01:08:23.533Z,98806.16
2023-10-20T01:10:50.199Z,98801.53
2023-10-20T01:13:16.939Z,98785.84
2023-10-20T01:15:43.663Z,98787.34
2023-10-20T01:18:11.647Z,98782.34
2023-10-20T01:20:40.298Z,98776.59
2023-10-20T01:23:07.123Z,98783.44
2023-10-20T01:25:34.104Z,98787.97
2023-10-20T01:28:00.948Z,98790.59
2023-10-20T01:30:27.788Z,98781.38
2023-10-20T01:32:54.546Z,98778.28
2023-10-20T01:35:21.361Z,98768.41
2023-10-20T01:37:48.659Z,98765.66
2023-10-20T01:40:15.661Z,98764.50
2023-10-20T01:42:42.189Z,98752.59
2023-10-20T01:45:11.001Z,98749.50
2023-10-20T01:47:38.241Z,98753.31
2023-10-20T01:50:05.592Z,98749.09
2023-10-20T01:52:32.174Z,98731.13
2023-10-20T01:55:00.409Z,98738.72
2023-10-20T01:57:27.242Z,98732.22
2023-10-20T01:59:53.864Z,98735.56
2023-10-20T02:02:20.473Z,98733.28
2023-10-20T02:04:47.574Z,98730.59
2023-10-20T02:07:14.273Z,98716.84
2023-10-20T02:09:40.832Z,98723.66
2023-10-20T02:12:08.704Z,98718.66
2023-10-20T02:14:35.671Z,98714.00
2023-10-20T02:17:02.921Z,98716.25
2023-10-20T02:19:29.582Z,98708.97
2023-10-20T02:21:56.371Z,98702.44
2023-10-20T02:24:23.263Z,98713.09
2023-10-20T02:26:49.884Z,98703.16
2023-10-20T02:29:16.563Z,98669.94
2023-10-20T02:31:43.134Z,98661.53
2023-10-20T02:34:09.729Z,98655.78
2023-10-20T02:36:36.356Z,98652.69
2023-10-20T02:39:03.100Z,98652.63
2023-10-20T02:41:30.199Z,98644.53
2023-10-20T02:43:56.944Z,98639.16
2023-10-20T02:46:24.035Z,98636.84
2023-10-20T02:48:50.833Z,98633.75
2023-10-20T02:51:18.870Z,98642.84
2023-10-20T02:53:45.953Z,98637.09
2023-10-20T02:56:17.456Z,98620.59
2023-10-20T02:58:45.123Z,98623.59
2023-10-20T03:01:16.036Z,98612.53
2023-10-20T03:03:43.272Z,98606.34
2023-10-20T03:06:10.012Z,98597.94
2023-10-20T03:08:39.234Z,98601.66
2023-10-20T03:11:08.892Z,98591.72
2023-10-20T03:13:39.099Z,98595.44
2023-10-20T03:16:07.020Z,98597.69
2023-10-20T03:18:33.918Z,98602.53
2023-10-20T03:21:02.507Z,98606.31
2023-10-20T03:23:29.580Z,98599.72
2023-10-20T03:25:56.221Z,98587.53
2023-10-20T03:28:22.877Z,98572.31
2023-10-20T03:30:52.036Z,98571.53
2023-10-20T03:33:19.401Z,98566.50
2023-10-20T03:35:47.268Z,98565.31
2023-10-20T03:38:15.828Z,98558.78
2023-10-20T03:40:43.165Z,98561.38
2023-10-20T03:43:11.394Z,98555.97
2023-10-20T03:45:50.879Z,98559.78
2023-10-20T03:48:18.054Z,98556.34
2023-10-20T03:50:45.473Z,98558.94
2023-10-20T03:53:17.400Z,98564.97
2023-10-20T03:55:44.495Z,98557.34
2023-10-20T03:58:12.430Z,98547.03
2023-10-20T04:00:43.198Z,98535.94
2023-10-20T04:03:10.240Z,98522.22
2023-10-20T04:05:37.062Z,98516.81
2023-10-20T04:08:07.400Z,98519.41
2023-10-20T04:10:34.325Z,98520.09
2023-10-20T04:13:03.180Z,98520.03
2023-10-20T04:15:33.808Z,98518.09
2023-10-20T04:18:00.484Z,98508.53
2023-10-20T04:20:27.337Z,98511.88
2023-10-20T04:22:54.156Z,98506.13
2023-10-20T04:25:25.141Z,98494.31
2023-10-20T04:27:59.272Z,98491.63
2023-10-20T04:30:44.924Z,98491.22
2023-10-20T04:33:30.181Z,98471.81
2023-10-20T04:36:15.438Z,98463.84
2023-10-20T04:39:00.294Z,98448.63
2023-10-20T04:41:45.377Z,98456.94
2023-10-20T04:44:17.732Z,98460.75
2023-10-20T04:47:03.774Z,98478.53
2023-10-20T04:49:48.940Z,98468.25
2023-10-20T04:52:38.612Z,98473.91
2023-10-20T04:55:11.603Z,98463.59
2023-10-20T04:57:51.818Z,98440.34
2023-10-20T05:00:21.836Z,98435.03
2023-10-20T05:02:55.283Z,98430.81
2023-10-20T05:05:26.586Z,98428.94
2023-10-20T05:07:54.965Z,98420.53
2023-10-20T05:10:23.227Z,98406.38
2023-10-20T05:12:49.865Z,98412.81
2023-10-20T05:15:16.819Z,98408.63
2023-10-20T05:17:43.446Z,98400.66
2023-10-20T05:20:14.267Z,98411.63
2023-10-20T05:22:43.755Z,98401.34
2023-10-20T05:25:12.948Z,98395.59
2023-10-20T05:27:40.162Z,98378.84
2023-10-20T05:30:10.252Z,98370.47
2023-10-20T05:32:38.746Z,98358.63
2023-10-20T05:35:08.628Z,98360.88
2023-10-20T05:37:35.568Z,98364.63
2023-10-20T05:40:04.567Z,98376.06
2023-10-20T05:42:31.292Z,98358.91
2023-10-20T05:45:10.957Z,98362.69
2023-10-20T05:47:39.488Z,98361.13
2023-10-20T05:50:07.697Z,98366.41
2023-10-20T05:52:37.120Z,98359.19
2023-10-20T05:55:04.833Z,98362.19
2023-10-20T05:57:31.656Z,98375.50
2023-10-20T06:00:01.411Z,98375.06
2023-10-20T06:02:29.213Z,98379.97
2023-10-20T06:04:56.112Z,98387.19
2023-10-20T06:07:22.917Z,98372.72
2023-10-20T06:09:50.690Z,98363.19
2023-10-20T06:12:18.060Z,98381.38
2023-10-20T06:14:45.049Z,98366.13
2023-10-20T06:17:12.223Z,98364.56
2023-10-20T06:19:38.950Z,98368.38
2023-10-20T06:22:06.820Z,98376.69
2023-10-20T06:24:34.666Z,98371.72
2023-10-20T06:27:03.998Z,98364.09
2023-10-20T06:29:47.505Z,98360.22
2023-10-20T06:32:27.386Z,98354.84
2023-10-20T06:35:00.675Z,98363.59
2023-10-20T06:37:43.282Z,98364.78
2023-10-20T06:40:16.874Z,98370.94
2023-10-20T06:42:46.741Z,98365.34
2023-10-20T06:45:13.283Z,98373.06
2023-10-20T06:47:42.282Z,98376.22
2023-10-20T06:50:11.936Z,98344.00
2023-10-20T06:52:38.770Z,98351.63
2023-10-20T06:55:30.520Z,98370.03
2023-10-20T06:57:53.040Z,98351.47
2023-10-20T07:00:22.044Z,98364.41
2023-10-20T07:02:49.861Z,98363.81
2023-10-20T07:05:18.793Z,98359.00
2023-10-20T07:07:45.475Z,98352.28
2023-10-20T07:10:12.064Z,98366.66
2023-10-20T07:12:39.284Z,98354.94
2023-10-20T07:15:06.934Z,98346.59
2023-10-20T07:17:34.179Z,98340.13
2023-10-20T07:20:00.959Z,98346.88
2023-10-20T07:22:31.120Z,98341.97
2023-10-20T07:24:59.065Z,98348.13
2023-10-20T07:27:26.616Z,98352.69
2023-10-20T07:29:53.510Z,98346.66
2023-10-20T07:32:20.719Z,98359.59
2023-10-20T07:34:48.213Z,98345.13
2023-10-20T07:37:17.010Z,98331.03
2023-10-20T07:39:44.881Z,98338.63
2023-10-20T07:42:11.724Z,98337.13
2023-10-20T07:44:38.605Z,98331.03
2023-10-20T07:47:05.356Z,98327.25
2023-10-20T07:49:32.156Z,98332.88
2023-10-20T07:51:59.969Z,98332.88
2023-10-20T07:54:27.249Z,98334.41
2023-10-20T07:56:53.981Z,98324.47
2023-10-20T07:59:20.659Z,98343.03
2023-10-20T08:01:47.378Z,98335.47
2023-10-20T08:04:14.281Z,98338.97
2023-10-20T08:06:41.834Z,98330.97
2023-10-20T08:09:10.736Z,98328.66
2023-10-20T08:11:37.688Z,98324.47
2023-10-20T08:14:06.448Z,98321.03
2023-10-20T08:16:33.527Z,98317.97
2023-10-20T08:19:02.039Z,98302.75
2023-10-20T08:21:31.156Z,98303.09
2023-10-20T08:23:59.473Z,98303.81
2023-10-20T08:26:26.214Z,98300.38
2023-10-20T08:28:53.128Z,98304.66
2023-10-20T08:31:21.111Z,98297.66
2023-10-20T08:33:49.852Z,98293.47
2023-10-20T08:36:17.402Z,98297.53
2023-10-20T08:38:48.912Z,98304.44
2023-10-20T08:41:22.977Z,98300.53
2023-10-20T08:43:52.086Z,98305.88
2023-10-20T08:46:19.604Z,98297.94
2023-10-20T08:48:48.219Z,98291.03
2023-10-20T08:51:18.236Z,98291.09
2023-10-20T08:53:48.534Z,98290.69
2023-10-20T08:56:15.766Z,98295.63
2023-10-20T08:58:46.709Z,98302.78
2023-10-20T09:01:14.335Z,98286.00
2023-10-20T09:03:50.085Z,98283.63
2023-10-20T09:06:17.143Z,98282.53
2023-10-20T09:08:47.230Z,98284.69
2023-10-20T09:11:14.349Z,98279.78
2023-10-20T09:13:44.198Z,98279.44
2023-10-20T09:16:13.012Z,98278.66
2023-10-20T09:18:49.238Z,98286.63
2023-10-20T09:21:18.287Z,98284.75
2023-10-20T09:24:02.781Z,98275.66
2023-10-20T09:26:33.103Z,98281.69
2023-10-20T09:29:02.353Z,98280.84
2023-10-20T09:31:29.667Z,98280.00
2023-10-20T09:33:56.512Z,98275.53
2023-10-20T09:36:27.399Z,98283.50
2023-10-20T09:38:55.894Z,98280.47
2023-10-20T09:41:31.242Z,98284.78
2023-10-20T09:44:10.248Z,98283.94
2023-10-20T09:46:43.340Z,98278.16
2023-10-20T09:49:18.294Z,98274.66
2023-10-20T09:51:49.071Z,98267.00
2023-10-20T09:54:18.791Z,98273.44
2023-10-20T09:56:47.159Z,98274.91
2023-10-20T09:59:30.087Z,98268.00
2023-10-20T10:01:58.076Z,98277.06
2023-10-20T10:04:29.729Z,98278.84
2023-10-20T10:07:01.022Z,98274.56
2023-10-20T10:09:44.634Z,98262.75
2023-10-20T10:12:15.748Z,98258.81
2023-10-20T10:14:42.718Z,98255.06
2023-10-20T10:17:11.310Z,98258.81
2023-10-20T10:19:50.271Z,98260.03
2023-10-20T10:22:17.421Z,98259.19
2023-10-20T10:24:57.895Z,98259.94
2023-10-20T10:27:29.368Z,98250.91
2023-10-20T10:30:07.569Z,98246.75
2023-10-20T10:32:42.907Z,98241.00
2023-10-20T10:35:11.005Z,98247.84
2023-10-20T10:37:39.126Z,98231.13
2023-10-20T10:40:15.640Z,98238.06
2023-10-20T10:42:47.579Z,98228.19
2023-10-20T10:45:19.235Z,98216.78
2023-10-20T10:47:47.251Z,98214.53
2023-10-20T10:50:16.644Z,98208.06
2023-10-20T10:52:45.779Z,98213.41
2023-10-20T10:55:12.498Z,98205.44
2023-10-20T10:57:40.585Z,98202.09
2023-10-20T11:00:08.383Z,98197.19
2023-10-20T11:02:35.589Z,98190.41
2023-10-20T11:05:03.909Z,98193.41
2023-10-20T11:07:30.499Z,98181.66
2023-10-20T11:09:57.166Z,98183.59
2023-10-20T11:12:24.051Z,98173.38
2023-10-20T11:14:51.599Z,98154.34
2023-10-20T11:17:18.521Z,98156.59
2023-10-20T11:19:46.054Z,98155.06
2023-10-20T11:22:17.063Z,98141.44
2023-10-20T11:24:44.054Z,98142.53
2023-10-20T11:27:14.111Z,98143.66
2023-10-20T11:29:57.609Z,98124.28
2023-10-20T11:32:27.293Z,98119.38
2023-10-20T11:34:54.438Z,98107.63
2023-10-20T11:37:21.009Z,98107.63
2023-10-20T11:39:48.378Z,98109.56
2023-10-20T11:42:15.558Z,98111.47
2023-10-20T11:44:42.510Z,98114.13
2023-10-20T11:47:09.121Z,98100.81
2023-10-20T11:49:35.929Z,98091.44
2023-10-20T11:52:09.872Z,98098.66
2023-10-20T11:54:37.548Z,98101.72
2023-10-20T11:57:04.285Z,98094.63
2023-10-20T11:59:30.913Z,98094.97
2023-10-20T12:13:10.408Z,98067.91
2023-10-20T12:15:38.831Z,98067.25
2023-10-20T12:18:08.176Z,98058.22
2023-10-20T12:20:35.704Z,98055.19
2023-10-20T12:23:16.622Z,98044.63
2023-10-20T12:25:43.731Z,98053.66
2023-10-20T12:28:11.768Z,98057.16
2023-10-20T12:30:38.591Z,98052.25
2023-10-20T12:33:06.943Z,98044.66
2023-10-20T12:35:33.780Z,98040.41
2023-10-20T12:38:00.633Z,98040.47
2023-10-20T12:40:27.494Z,98051.44
2023-10-20T12:42:54.945Z,98047.69
2023-10-20T12:45:21.555Z,98048.50
2023-10-20T12:47:48.508Z,98041.69
2023-10-20T12:50:15.796Z,98040.94
2023-10-20T12:52:42.545Z,98029.56
2023-10-20T12:55:11.152Z,98027.31
2023-10-20T12:57:55.771Z,98028.09
2023-10-20T13:00:22.393Z,98022.72
2023-10-20T13:02:53.884Z,98019.66
2023-10-20T13:05:22.662Z,98019.72
2023-10-20T13:07:51.497Z,98015.56
2023-10-20T13:10:18.946Z,98015.22
2023-10-20T13:12:46.144Z,98018.63
2023-10-20T13:15:12.944Z,98017.47
2023-10-20T13:17:39.826Z,98014.81
2023-10-20T13:20:09.995Z,98012.53
2023-10-20T13:22:36.623Z,98012.44
2023-10-20T13:25:03.714Z,98017.81
2023-10-20T13:27:31.199Z,98012.13
2023-10-20T13:29:58.202Z,98016.38
2023-10-20T13:32:25.021Z,98015.16
2023-10-20T13:34:51.954Z,98019.34
2023-10-20T13:37:21.180Z,98018.56
2023-10-20T13:39:48.390Z,98025.38
2023-10-20T13:42:15.656Z,98038.34
2023-10-20T13:44:42.442Z,98037.91
2023-10-20T13:47:09.202Z,98038.69
2023-10-20T13:49:36.206Z,98047.41
2023-10-20T13:52:03.358Z,98044.00
2023-10-20T13:54:30.380Z,98044.81
2023-10-20T13:56:57.275Z,98057.78
2023-10-20T13:59:24.138Z,98051.25
2023-10-20T14:01:50.734Z,98048.59
2023-10-20T14:04:19.554Z,98069.88
2023-10-20T14:06:47.049Z,98072.13
2023-10-20T14:09:15.385Z,98074.78
2023-10-20T14:11:42.310Z,98074.03
2023-10-20T14:14:09.140Z,98081.25
2023-10-20T14:16:36.089Z,98083.50
2023-10-20T14:19:02.999Z,98087.66
2023-10-20T14:21:29.867Z,98097.16
2023-10-20T14:24:06.452Z,98108.97
2023-10-20T14:26:33.372Z,98113.59
2023-10-20T14:29:00.143Z,98106.38
2023-10-20T14:31:30.847Z,98108.69
2023-10-20T14:33:59.777Z,98095.03
2023-10-20T14:36:26.693Z,98108.31
2023-10-20T14:38:53.468Z,98107.53
2023-10-20T14:41:20.101Z,98098.09
2023-10-20T14:43:46.788Z,98097.69
2023-10-20T14:46:14.530Z,98089.28
2023-10-20T14:48:41.844Z,98092.72
2023-10-20T14:51:09.551Z,98082.41
2023-10-20T14:53:36.725Z,98069.13
2023-10-20T14:56:04.968Z,98075.19
2023-10-20T14:58:33.616Z,98068.34
2023-10-20T15:01:00.631Z,98070.25
2023-10-20T15:03:28.334Z,98070.66
2023-10-20T15:05:55.201Z,98068.03
2023-10-20T15:08:22.112Z,98076.81
2023-10-20T15:10:49.336Z,98072.31
2023-10-20T15:13:16.495Z,98072.72
2023-10-20T15:15:43.320Z,98073.13
2023-10-20T15:18:10.706Z,98073.53
2023-10-20T15:20:41.348Z,98078.88
2023-10-20T15:23:17.184Z,98086.16
2023-10-20T15:25:44.673Z,98077.81
2023-10-20T15:28:11.383Z,98078.59
2023-10-20T15:30:39.004Z,98089.25
2023-10-20T15:33:06.127Z,98082.03
2023-10-20T15:35:35.384Z,98082.03
2023-10-20T15:38:03.550Z,98083.53
2023-10-20T15:40:30.335Z,98089.28
2023-10-20T15:42:56.925Z,98084.72
2023-10-20T15:45:23.787Z,98090.47
2023-10-20T15:47:52.280Z,98078.31
2023-10-20T15:50:19.111Z,98078.38
2023-10-20T15:52:45.689Z,98078.41
2023-10-20T15:55:13.791Z,98082.22
2023-10-20T15:57:40.388Z,98085.63
2023-10-20T16:00:07.586Z,98079.19
2023-10-20T16:02:34.460Z,98089.47
2023-10-20T16:05:03.262Z,98087.59
2023-10-20T16:07:30.353Z,98085.63
2023-10-20T16:09:58.284Z,98093.69
2023-10-20T16:12:24.991Z,98092.13
2023-10-20T16:14:52.809Z,98089.88
2023-10-20T16:17:20.398Z,98092.19
2023-10-20T16:19:46.989Z,98096.41
2023-10-20T16:22:14.114Z,98100.22
2023-10-20T16:24:42.436Z,98107.47
2023-10-20T16:27:11.436Z,98113.56
2023-10-20T16:29:38.201Z,98121.97
2023-10-20T16:32:05.196Z,98114.41
2023-10-20T16:34:31.976Z,98116.78
2023-10-20T16:36:58.594Z,98117.19
2023-10-20T16:39:25.256Z,98119.09
2023-10-20T16:41:52.124Z,98121.00
2023-10-20T16:44:18.653Z,98121.41
2023-10-20T16:46:45.365Z,98116.84
2023-10-20T16:49:14.600Z,98118.06
2023-10-20T16:51:44.806Z,98121.13
2023-10-20T16:54:12.505Z,98120.75
2023-10-20T16:56:39.593Z,98124.59
2023-10-20T16:59:06.664Z,98117.38
2023-10-20T17:01:33.443Z,98124.59
2023-10-20T17:04:00.795Z,98124.59
2023-10-20T17:06:27.984Z,98131.84
2023-10-20T17:08:57.572Z,98126.19
2023-10-20T17:11:24.326Z,98136.44
2023-10-20T17:13:53.124Z,98129.25
2023-10-20T17:16:19.832Z,98134.97
2023-10-20T17:18:47.953Z,98131.56
2023-10-20T17:21:14.940Z,98138.06
2023-10-20T17:23:43.877Z,98134.28
2023-10-20T17:26:10.795Z,98140.06
2023-10-20T17:28:37.992Z,98136.69
2023-10-20T17:31:06.086Z,98140.16
2023-10-20T17:33:33.291Z,98141.31
2023-10-20T17:36:07.637Z,98145.94
2023-10-20T17:38:35.095Z,98153.19
2023-10-20T17:41:04.304Z,98156.25
2023-10-20T17:43:32.112Z,98155.53
2023-10-20T17:46:04.015Z,98155.22
2023-10-20T17:48:30.912Z,98163.25
2023-10-20T17:51:01.599Z,98165.97
2023-10-20T17:53:29.045Z,98161.81
2023-10-20T17:55:55.792Z,98165.28
2023-10-20T17:58:22.460Z,98176.00
2023-10-20T18:00:50.321Z,98170.66
2023-10-20T18:03:18.296Z,98177.16
2023-10-20T18:05:45.151Z,98178.34
2023-10-20T18:08:12.837Z,98171.91
2023-10-20T18:10:43.008Z,98172.31
2023-10-20T18:13:10.304Z,98177.69
2023-10-20T18:15:37.820Z,98181.94
2023-10-20T18:18:05.288Z,98186.94
2023-10-20T18:20:32.214Z,98179.72
2023-10-20T18:23:00.001Z,98177.50
2023-10-20T18:25:28.797Z,98174.13
2023-10-20T18:27:55.573Z,98186.75
2023-10-20T18:30:22.293Z,98186.81
2023-10-20T18:32:49.171Z,98186.13
2023-10-20T18:35:16.950Z,98186.50
2023-10-20T18:37:43.558Z,98194.56
2023-10-20T18:40:10.781Z,98187.34
2023-10-20T18:42:37.447Z,98193.13
2023-10-20T18:45:04.823Z,98196.19
2023-10-20T18:47:32.652Z,98198.88
2023-10-20T18:49:59.447Z,98197.78
2023-10-20T18:52:26.037Z,98195.50
2023-10-20T18:54:53.119Z,98195.50
2023-10-20T18:57:19.767Z,98198.25
2023-10-20T18:59:46.689Z,98205.91
2023-10-20T19:02:14.533Z,98210.13
2023-10-20T19:04:41.413Z,98204.00
2023-10-20T19:07:08.352Z,98204.38
2023-10-20T19:09:35.263Z,98207.44
2023-10-20T19:12:02.295Z,98212.50
2023-10-20T19:14:29.050Z,98220.13
2023-10-20T19:16:56.099Z,98220.13
2023-10-20T19:19:22.930Z,98219.75
2023-10-20T19:21:50.818Z,98228.53
2023-10-20T19:24:19.206Z,98228.94
2023-10-20T19:26:45.913Z,98240.00
2023-10-20T19:29:13.261Z,98252.97
2023-10-20T19:31:40.440Z,98252.25
2023-10-20T19:34:08.380Z,98254.53
2023-10-20T19:36:35.048Z,98259.88
2023-10-20T19:39:01.894Z,98258.72
2023-10-20T19:41:28.598Z,98259.09
2023-10-20T19:43:55.445Z,98265.22
2023-10-20T19:46:22.837Z,98273.59
2023-10-20T19:48:49.605Z,98283.16
2023-10-20T19:51:16.359Z,98279.31
2023-10-20T19:53:43.194Z,98289.63
2023-10-20T19:56:09.952Z,98286.94
2023-10-20T19:58:36.613Z,98299.94
2023-10-20T20:01:04.441Z,98310.66
2023-10-20T20:03:31.570Z,98310.25
2023-10-20T20:05:58.638Z,98306.41
2023-10-20T20:08:25.681Z,98318.22
2023-10-20T20:10:52.314Z,98321.19
2023-10-20T20:13:18.868Z,98326.47
2023-10-20T20:15:45.445Z,98334.81
2023-10-20T20:18:12.407Z,98337.44
2023-10-20T20:20:39.239Z,98341.97
2023-10-20T20:23:05.984Z,98346.88
2023-10-20T20:25:32.631Z,98344.50
2023-10-20T20:27:59.266Z,98358.59
2023-10-20T20:30:25.836Z,98352.06
2023-10-20T20:32:52.787Z,98355.81
2023-10-20T20:35:21.271Z,98357.69
2023-10-20T20:37:47.947Z,98356.50
2023-10-20T20:40:14.720Z,98364.81
2023-10-20T20:42:41.408Z,98362.47
2023-10-20T20:45:09.004Z,98369.28
2023-10-20T20:47:38.238Z,98360.47
2023-10-20T20:50:10.370Z,98363.88
2023-10-20T20:52:40.266Z,98377.19
2023-10-20T20:55:07.070Z,98366.47
2023-10-20T20:57:33.659Z,98371.00
2023-10-20T21:00:00.783Z,98369.47
2023-10-20T21:02:27.524Z,98359.50
2023-10-20T21:04:55.457Z,98372.09
2023-10-20T21:07:22.267Z,98375.84
2023-10-20T21:09:49.149Z,98368.97
2023-10-20T21:12:16.006Z,98365.06
2023-10-20T21:14:42.707Z,98380.31
2023-10-20T21:17:09.327Z,98380.63
2023-10-20T21:19:36.050Z,98381.34
2023-10-20T21:22:04.111Z,98386.25
2023-10-20T21:24:30.710Z,98388.53
2023-10-20T21:26:57.580Z,98409.84
2023-10-20T21:29:26.387Z,98408.69
2023-10-20T21:31:53.681Z,98417.41
2023-10-20T21:34:20.297Z,98412.84
2023-10-20T21:36:47.131Z,98414.69
2023-10-20T21:39:14.221Z,98417.34
2023-10-20T21:41:41.008Z,98421.91
2023-10-20T21:44:08.297Z,98420.72
2023-10-20T21:46:37.481Z,98431.38
2023-10-20T21:49:04.138Z,98431.34
2023-10-20T21:51:30.812Z,98435.88
2023-10-20T21:53:57.903Z,98436.25
2023-10-20T21:56:24.569Z,98440.78
2023-10-20T21:58:51.325Z,98446.09
2023-10-20T22:01:18.011Z,98445.28
2023-10-20T22:03:46.251Z,98442.59
2023-10-20T22:06:12.967Z,98439.94
2023-10-20T22:08:39.894Z,98454.69
2023-10-20T22:11:06.726Z,98455.44
2023-10-20T22:13:33.332Z,98456.22
2023-10-20T22:16:00.004Z,98464.88
2023-10-20T22:18:27.264Z,98466.84
2023-10-20T22:20:54.403Z,98464.47
2023-10-20T22:23:23.376Z,98461.78
2023-10-20T22:25:50.592Z,98469.38
2023-10-20T22:28:17.219Z,98471.28
2023-10-20T22:30:44.061Z,98473.88
2023-10-20T22:33:11.073Z,98470.03
2023-10-20T22:35:38.052Z,98470.28
2023-10-20T22:38:04.720Z,98474.88
2023-10-20T22:40:31.538Z,98471.09
2023-10-20T22:42:58.260Z,98481.69
2023-10-20T22:45:25.288Z,98483.16
2023-10-20T22:47:51.945Z,98477.41
2023-10-20T22:50:21.417Z,98485.34
2023-10-20T22:52:48.957Z,98485.34
2023-10-20T22:55:16.080Z,98495.91
2023-10-20T22:57:42.759Z,98497.47
2023-10-20T23:00:10.999Z,98494.03
2023-10-20T23:02:39.812Z,98495.56
2023-10-20T23:05:07.993Z,98495.50
2023-10-20T23:07:35.057Z,98495.06
2023-10-20T23:10:01.795Z,98498.94
2023-10-20T23:12:28.436Z,98500.41
2023-10-20T23:14:55.155Z,98513.31
2023-10-20T23:17:21.862Z,98519.69
2023-10-20T23:19:48.522Z,98526.56
2023-10-20T23:22:16.055Z,98522.69
2023-10-20T23:24:42.738Z,98522.66
2023-10-20T23:27:09.574Z,98527.97
2023-10-20T23:29:36.494Z,98525.66
2023-10-20T23:32:08.652Z,98529.38
2023-10-20T23:34:36.043Z,98526.41
2023-10-20T23:37:04.700Z,98526.72
2023-10-20T23:39:34.047Z,98528.22
2023-10-20T23:42:02.101Z,98527.09
2023-10-20T23:44:30.966Z,98534.25
2023-10-20T23:46:57.833Z,98539.56
2023-10-20T23:49:24.416Z,98543.72
2023-10-20T23:51:51.808Z,98556.19
2023-10-20T23:54:18.562Z,98555.03
2023-10-20T23:56:45.209Z,98556.94
2023-10-20T23:59:11.785Z,98556.19
